createdAt,value
2017-11-03T00:00:19.063Z,9.2
2017-11-03T00:01:18.800Z,9.2
2017-11-03T00:02:19.007Z,9.2
2017-11-03T00:03:18.448Z,9.2
2017-11-03T00:04:18.170Z,9.2
2017-11-03T00:05:18.561Z,9.2
2017-11-03T00:06:18.622Z,9.2
2017-11-03T00:07:19.152Z,9.2
2017-11-03T00:08:18.405Z,9.2
2017-11-03T00:10:30.970Z,9.2
2017-11-03T00:11:31.470Z,9.2
2017-11-03T00:12:30.849Z,9.2
2017-11-03T00:13:31.104Z,9.3
2017-11-03T00:14:31.657Z,9.3
2017-11-03T00:15:31.366Z,9.3
2017-11-03T00:16:31.167Z,9.3
2017-11-03T00:17:30.987Z,9.3
2017-11-03T00:18:30.733Z,9.3
2017-11-03T00:19:32.075Z,9.3
2017-11-03T00:20:31.870Z,9.3
2017-11-03T00:21:31.168Z,9.3
2017-11-03T00:22:32.885Z,9.3
2017-11-03T00:23:30.737Z,9.3
2017-11-03T00:24:30.974Z,9.3
2017-11-03T00:25:31.149Z,9.3
2017-11-03T00:26:31.199Z,9.3
2017-11-03T00:27:31.257Z,9.3
2017-11-03T00:28:31.813Z,9.3
2017-11-03T00:29:31.195Z,9.3
2017-11-03T00:30:32.766Z,9.3
2017-11-03T00:31:32.207Z,9.3
2017-11-03T00:32:33.088Z,9.3
2017-11-03T00:33:32.445Z,9.3
2017-11-03T00:34:30.984Z,9.3
2017-11-03T00:35:30.785Z,9.3
2017-11-03T00:36:32.466Z,9.3
2017-11-03T00:37:31.505Z,9.3
2017-11-03T00:38:31.463Z,9.3
2017-11-03T00:39:32.127Z,9.3
2017-11-03T00:40:31.882Z,9.3
2017-11-03T00:41:31.041Z,9.2
2017-11-03T00:42:30.875Z,9.2
2017-11-03T00:43:31.224Z,9.2
2017-11-03T00:44:32.295Z,9.2
2017-11-03T00:45:31.185Z,9.2
2017-11-03T00:46:31.421Z,9.2
2017-11-03T00:47:32.644Z,9.2
2017-11-03T00:48:32.754Z,9.2
2017-11-03T00:49:31.853Z,9.2
2017-11-03T00:50:31.361Z,9.2
2017-11-03T00:51:30.855Z,9.2
2017-11-03T00:52:31.728Z,9.2
2017-11-03T00:53:31.180Z,9.2
2017-11-03T00:54:33.603Z,9.1
2017-11-03T00:55:30.816Z,9.1
2017-11-03T00:56:31.037Z,9.1
2017-11-03T00:57:31.346Z,9.1
2017-11-03T00:58:32.417Z,9.1
2017-11-03T00:59:31.674Z,9.1
2017-11-03T01:00:31.307Z,9.1
2017-11-03T01:01:31.437Z,9.1
2017-11-03T01:02:30.775Z,9.2
2017-11-03T01:03:31.520Z,9.2
2017-11-03T01:04:31.135Z,9.2
2017-11-03T01:05:31.242Z,9.2
2017-11-03T01:06:31.239Z,9.2
2017-11-03T01:07:31.886Z,9.2
2017-11-03T01:08:32.262Z,9.2
2017-11-03T01:09:31.141Z,9.2
2017-11-03T01:10:32.272Z,9.2
2017-11-03T01:11:31.168Z,9.2
2017-11-03T01:12:31.806Z,9.2
2017-11-03T01:13:32.801Z,9.2
2017-11-03T01:14:31.654Z,9.1
2017-11-03T01:15:30.842Z,9.1
2017-11-03T01:16:33.249Z,9.1
2017-11-03T01:17:31.473Z,9.1
2017-11-03T01:18:31.231Z,9.1
2017-11-03T01:19:31.587Z,9.1
2017-11-03T01:20:31.685Z,9.1
2017-11-03T01:21:30.898Z,9.1
2017-11-03T01:22:32.274Z,9.0
2017-11-03T01:23:31.353Z,9.0
2017-11-03T01:24:30.883Z,9.0
2017-11-03T01:25:32.230Z,9.0
2017-11-03T01:26:47.447Z,9.0
2017-11-03T01:27:31.511Z,9.0
2017-11-03T01:28:31.636Z,9.0
2017-11-03T01:29:31.278Z,9.0
2017-11-03T01:30:31.281Z,9.0
2017-11-03T01:31:31.360Z,9.0
2017-11-03T01:32:33.214Z,9.0
2017-11-03T01:33:30.993Z,9.0
2017-11-03T01:34:31.781Z,9.0
2017-11-03T01:35:31.893Z,8.9
2017-11-03T01:36:30.898Z,8.9
2017-11-03T01:37:30.887Z,8.9
2017-11-03T01:38:31.115Z,8.9
2017-11-03T01:39:31.950Z,8.9
2017-11-03T01:40:31.808Z,8.9
2017-11-03T01:41:31.111Z,8.9
2017-11-03T01:42:31.483Z,8.9
2017-11-03T01:43:31.491Z,8.9
2017-11-03T01:44:32.033Z,8.9
2017-11-03T01:45:31.344Z,8.9
2017-11-03T01:46:31.888Z,8.9
2017-11-03T01:47:31.110Z,8.9
2017-11-03T01:48:31.480Z,8.9
2017-11-03T01:49:32.169Z,8.9
2017-11-03T01:50:31.845Z,8.8
2017-11-03T01:51:31.971Z,8.8
2017-11-03T01:52:30.976Z,8.8
2017-11-03T01:53:30.958Z,8.8
2017-11-03T01:54:41.665Z,8.8
2017-11-03T01:55:31.909Z,8.8
2017-11-03T01:56:30.976Z,8.8
2017-11-03T01:57:31.572Z,8.8
2017-11-03T01:58:31.679Z,8.8
2017-11-03T01:59:30.901Z,8.8
2017-11-03T02:00:31.551Z,8.8
2017-11-03T02:01:32.343Z,8.8
2017-11-03T02:02:32.494Z,8.8
2017-11-03T02:03:31.745Z,8.7
2017-11-03T02:04:32.007Z,8.7
2017-11-03T02:05:31.430Z,8.6
2017-11-03T02:06:31.316Z,8.6
2017-11-03T02:07:31.756Z,8.6
2017-11-03T02:08:31.784Z,8.5
2017-11-03T02:09:31.684Z,8.5
2017-11-03T02:10:31.157Z,8.4
2017-11-03T02:11:31.977Z,8.4
2017-11-03T02:12:31.771Z,8.4
2017-11-03T02:13:31.464Z,8.4
2017-11-03T02:14:35.549Z,8.4
2017-11-03T02:15:30.963Z,8.4
2017-11-03T02:16:31.492Z,8.4
2017-11-03T02:17:31.448Z,8.4
2017-11-03T02:18:40.720Z,8.4
2017-11-03T02:19:34.359Z,8.4
2017-11-03T02:20:31.659Z,8.5
2017-11-03T02:21:31.219Z,8.5
2017-11-03T02:22:41.118Z,8.5
2017-11-03T02:23:31.417Z,8.5
2017-11-03T02:24:31.051Z,8.5
2017-11-03T02:25:31.600Z,8.5
2017-11-03T02:26:31.693Z,8.5
2017-11-03T02:27:31.592Z,8.5
2017-11-03T02:28:31.995Z,8.5
2017-11-03T02:29:32.303Z,8.5
2017-11-03T02:30:31.233Z,8.7
2017-11-03T02:31:30.985Z,8.7
2017-11-03T02:32:31.545Z,8.7
2017-11-03T02:33:31.791Z,8.7
2017-11-03T02:34:31.428Z,8.7
2017-11-03T02:35:31.104Z,8.7
2017-11-03T02:36:31.678Z,8.8
2017-11-03T02:37:31.465Z,8.8
2017-11-03T02:38:31.504Z,8.8
2017-11-03T02:39:31.522Z,8.8
2017-11-03T02:40:31.534Z,8.8
2017-11-03T02:41:32.196Z,8.8
2017-11-03T02:42:31.069Z,8.8
2017-11-03T02:43:31.449Z,8.9
2017-11-03T02:44:32.142Z,8.9
2017-11-03T02:45:31.782Z,8.9
2017-11-03T02:46:31.224Z,8.8
2017-11-03T02:47:32.366Z,8.8
2017-11-03T02:48:30.994Z,8.8
2017-11-03T02:49:31.258Z,8.8
2017-11-03T02:50:31.482Z,8.8
2017-11-03T02:53:12.517Z,8.8
2017-11-03T02:53:28.473Z,8.8
2017-11-03T02:54:30.069Z,8.8
2017-11-03T02:55:29.464Z,8.8
2017-11-03T02:56:29.209Z,8.8
2017-11-03T02:57:29.546Z,8.8
2017-11-03T02:58:29.443Z,8.8
2017-11-03T02:59:29.600Z,8.8
2017-11-03T03:00:29.361Z,8.8
2017-11-03T03:01:29.364Z,8.7
2017-11-03T03:03:42.377Z,8.6
2017-11-03T03:04:42.974Z,8.6
2017-11-03T03:05:43.154Z,8.6
2017-11-03T03:06:43.925Z,8.6
2017-11-03T03:07:42.275Z,8.6
2017-11-03T03:08:42.417Z,8.6
2017-11-03T03:09:44.907Z,8.6
2017-11-03T03:10:42.147Z,8.6
2017-11-03T03:11:42.759Z,8.6
2017-11-03T03:12:41.976Z,8.6
2017-11-03T03:13:42.725Z,8.6
2017-11-03T03:14:42.982Z,8.6
2017-11-03T03:15:42.346Z,8.6
2017-11-03T03:16:43.093Z,8.6
2017-11-03T03:17:43.716Z,8.6
2017-11-03T03:18:43.252Z,8.6
2017-11-03T03:19:42.471Z,8.6
2017-11-03T03:20:44.246Z,8.6
2017-11-03T03:21:43.089Z,8.6
2017-11-03T03:22:42.248Z,8.6
2017-11-03T03:23:43.218Z,8.6
2017-11-03T03:24:42.059Z,8.5
2017-11-03T03:25:44.568Z,8.5
2017-11-03T03:26:42.972Z,8.5
2017-11-03T03:27:43.726Z,8.5
2017-11-03T03:28:42.046Z,8.5
2017-11-03T03:29:43.143Z,8.5
2017-11-03T03:30:42.095Z,8.5
2017-11-03T03:31:43.995Z,8.5
2017-11-03T03:32:43.392Z,8.5
2017-11-03T03:33:42.900Z,8.5
2017-11-03T03:34:42.792Z,8.5
2017-11-03T03:35:43.035Z,8.5
2017-11-03T03:36:44.166Z,8.5
2017-11-03T03:37:42.524Z,8.5
2017-11-03T03:38:42.973Z,8.5
2017-11-03T03:39:42.353Z,8.6
2017-11-03T03:40:43.461Z,8.6
2017-11-03T03:41:43.035Z,8.6
2017-11-03T03:42:42.040Z,8.6
2017-11-03T03:43:42.017Z,8.6
2017-11-03T03:44:43.645Z,8.6
2017-11-03T03:45:43.137Z,8.6
2017-11-03T03:46:42.234Z,8.6
2017-11-03T03:47:42.306Z,8.6
2017-11-03T03:48:43.254Z,8.6
2017-11-03T03:49:42.207Z,8.6
2017-11-03T03:50:42.817Z,8.6
2017-11-03T03:51:42.000Z,8.6
2017-11-03T03:52:42.426Z,8.6
2017-11-03T03:53:42.658Z,8.6
2017-11-03T03:54:42.385Z,8.6
2017-11-03T03:55:42.419Z,8.6
2017-11-03T03:56:44.327Z,8.6
2017-11-03T03:57:43.002Z,8.6
2017-11-03T03:58:42.076Z,8.6
2017-11-03T03:59:42.552Z,8.6
2017-11-03T04:00:43.020Z,8.6
2017-11-03T04:01:42.609Z,8.6
2017-11-03T04:02:43.359Z,8.7
2017-11-03T04:03:42.779Z,8.7
2017-11-03T04:04:42.340Z,8.7
2017-11-03T04:05:43.256Z,8.7
2017-11-03T04:06:42.941Z,8.7
2017-11-03T04:07:42.693Z,8.7
2017-11-03T04:08:42.948Z,8.7
2017-11-03T04:09:42.411Z,8.6
2017-11-03T04:10:45.256Z,8.6
2017-11-03T04:11:42.942Z,8.6
2017-11-03T04:12:44.175Z,8.7
2017-11-03T04:13:42.538Z,8.7
2017-11-03T04:14:43.494Z,8.7
2017-11-03T04:15:43.989Z,8.7
2017-11-03T04:16:42.234Z,8.7
2017-11-03T04:17:42.551Z,8.7
2017-11-03T04:18:42.139Z,8.7
2017-11-03T04:19:42.534Z,8.7
2017-11-03T04:20:42.208Z,8.6
2017-11-03T04:21:43.734Z,8.6
2017-11-03T04:22:43.052Z,8.5
2017-11-03T04:23:44.456Z,8.5
2017-11-03T04:24:44.709Z,8.5
2017-11-03T04:25:42.542Z,8.0
2017-11-03T04:26:44.812Z,8.0
2017-11-03T04:27:42.402Z,8.0
2017-11-03T04:28:42.358Z,8.0
2017-11-03T04:29:42.472Z,8.0
2017-11-03T04:30:43.143Z,8.0
2017-11-03T04:31:43.411Z,8.0
2017-11-03T04:32:42.847Z,8.0
2017-11-03T04:33:42.836Z,8.0
2017-11-03T04:34:42.269Z,8.0
2017-11-03T04:35:42.305Z,8.1
2017-11-03T04:36:42.141Z,8.1
2017-11-03T04:37:42.480Z,8.1
2017-11-03T04:38:43.794Z,8.1
2017-11-03T04:39:43.049Z,8.1
2017-11-03T04:40:42.610Z,8.1
2017-11-03T04:41:42.574Z,8.1
2017-11-03T04:42:43.110Z,8.2
2017-11-03T04:43:42.998Z,8.2
2017-11-03T04:44:43.982Z,8.2
2017-11-03T04:45:42.348Z,8.2
2017-11-03T04:46:42.570Z,8.2
2017-11-03T04:47:42.352Z,8.2
2017-11-03T04:48:42.590Z,8.2
2017-11-03T04:49:43.353Z,8.2
2017-11-03T04:50:42.606Z,8.2
2017-11-03T04:51:42.116Z,8.2
2017-11-03T04:52:42.505Z,8.2
2017-11-03T04:53:43.713Z,8.2
2017-11-03T04:54:42.592Z,8.2
2017-11-03T04:55:42.404Z,8.1
2017-11-03T04:56:42.343Z,8.1
2017-11-03T04:57:42.246Z,8.1
2017-11-03T04:58:43.278Z,7.9
2017-11-03T04:59:43.977Z,7.9
2017-11-03T05:00:43.082Z,7.7
2017-11-03T05:01:43.908Z,7.7
2017-11-03T05:02:42.231Z,7.7
2017-11-03T05:03:42.180Z,7.6
2017-11-03T05:04:42.444Z,7.6
2017-11-03T05:05:53.731Z,7.6
2017-11-03T05:06:42.508Z,7.6
2017-11-03T05:07:42.708Z,7.6
2017-11-03T05:08:44.385Z,7.6
2017-11-03T05:09:43.294Z,7.6
2017-11-03T05:10:42.414Z,7.6
2017-11-03T05:11:43.598Z,7.6
2017-11-03T05:12:44.297Z,7.6
2017-11-03T05:13:43.078Z,7.6
2017-11-03T05:14:42.326Z,7.6
2017-11-03T05:15:42.288Z,7.6
2017-11-03T05:16:43.187Z,7.6
2017-11-03T05:17:42.646Z,7.6
2017-11-03T05:18:42.925Z,7.7
2017-11-03T05:19:43.178Z,7.7
2017-11-03T05:20:42.713Z,7.7
2017-11-03T05:21:43.198Z,7.7
2017-11-03T05:22:42.715Z,7.7
2017-11-03T05:23:44.668Z,7.7
2017-11-03T05:24:42.644Z,7.7
2017-11-03T05:25:43.536Z,7.7
2017-11-03T05:26:43.310Z,7.7
2017-11-03T05:27:42.650Z,7.7
2017-11-03T05:28:42.740Z,7.7
2017-11-03T05:29:42.343Z,7.7
2017-11-03T05:30:42.490Z,7.7
2017-11-03T05:31:42.290Z,7.7
2017-11-03T05:32:42.258Z,7.7
2017-11-03T05:33:43.524Z,7.8
2017-11-03T05:34:42.770Z,7.8
2017-11-03T05:35:43.137Z,7.8
2017-11-03T05:36:43.215Z,7.9
2017-11-03T05:37:43.166Z,7.9
2017-11-03T05:38:43.033Z,7.9
2017-11-03T05:39:43.835Z,7.9
2017-11-03T05:40:42.688Z,7.9
2017-11-03T05:41:42.819Z,7.9
2017-11-03T05:42:45.282Z,7.9
2017-11-03T05:43:43.770Z,7.9
2017-11-03T05:44:44.711Z,7.9
2017-11-03T05:45:42.812Z,7.9
2017-11-03T05:46:42.761Z,7.9
2017-11-03T05:47:42.380Z,7.9
2017-11-03T05:48:42.425Z,7.9
2017-11-03T05:49:43.466Z,8.0
2017-11-03T05:50:42.700Z,8.0
2017-11-03T05:51:42.744Z,8.0
2017-11-03T05:53:11.283Z,8.0
2017-11-03T05:53:43.259Z,8.0
2017-11-03T05:54:42.855Z,7.8
2017-11-03T05:55:42.660Z,7.8
2017-11-03T05:56:42.481Z,7.7
2017-11-03T05:57:43.107Z,7.7
2017-11-03T05:58:42.760Z,7.7
2017-11-03T05:59:43.279Z,7.6
2017-11-03T06:00:43.361Z,7.6
2017-11-03T06:01:42.311Z,7.6
2017-11-03T06:02:42.547Z,7.6
2017-11-03T06:04:55.664Z,7.6
2017-11-03T06:05:55.760Z,7.6
2017-11-03T06:06:55.838Z,7.6
2017-11-03T06:07:56.713Z,7.6
2017-11-03T06:08:55.619Z,7.6
2017-11-03T06:09:55.803Z,7.4
2017-11-03T06:10:55.774Z,7.4
2017-11-03T06:11:55.602Z,7.5
2017-11-03T06:12:56.300Z,7.5
2017-11-03T06:13:55.738Z,7.5
2017-11-03T06:14:55.395Z,7.6
2017-11-03T06:15:55.670Z,7.6
2017-11-03T06:16:56.198Z,7.6
2017-11-03T06:17:57.000Z,7.6
2017-11-03T06:18:55.399Z,7.6
2017-11-03T06:19:57.084Z,7.4
2017-11-03T06:20:57.056Z,7.4
2017-11-03T06:21:55.552Z,7.4
2017-11-03T06:22:58.128Z,7.4
2017-11-03T06:23:55.764Z,7.4
2017-11-03T06:24:55.491Z,7.2
2017-11-03T06:25:55.927Z,7.2
2017-11-03T06:26:55.940Z,7.1
2017-11-03T06:27:56.195Z,7.1
2017-11-03T06:28:56.617Z,7.1
2017-11-03T06:29:55.770Z,7.0
2017-11-03T06:30:57.428Z,7.0
2017-11-03T06:31:55.801Z,7.0
2017-11-03T06:32:56.232Z,7.0
2017-11-03T06:33:56.609Z,7.0
2017-11-03T06:34:59.468Z,7.0
2017-11-03T06:35:55.849Z,7.0
2017-11-03T06:36:57.738Z,7.0
2017-11-03T06:37:57.135Z,7.0
2017-11-03T06:38:55.789Z,7.0
2017-11-03T06:39:55.415Z,7.2
2017-11-03T06:40:55.365Z,7.2
2017-11-03T06:41:55.800Z,7.2
2017-11-03T06:42:56.447Z,7.2
2017-11-03T06:43:55.605Z,7.2
2017-11-03T06:44:56.647Z,7.4
2017-11-03T06:45:56.413Z,7.4
2017-11-03T06:46:56.414Z,7.4
2017-11-03T06:47:55.851Z,7.4
2017-11-03T06:48:56.035Z,7.4
2017-11-03T06:49:56.979Z,7.3
2017-11-03T06:50:56.989Z,7.3
2017-11-03T06:51:56.132Z,7.3
2017-11-03T06:52:55.916Z,7.1
2017-11-03T06:53:55.654Z,7.1
2017-11-03T06:54:56.450Z,7.0
2017-11-03T06:55:58.228Z,7.0
2017-11-03T06:56:55.681Z,7.0
2017-11-03T06:57:56.987Z,7.1
2017-11-03T06:58:55.854Z,7.1
2017-11-03T07:01:37.060Z,7.0
2017-11-03T07:01:49.761Z,7.0
2017-11-03T07:02:50.278Z,7.2
2017-11-03T07:03:50.081Z,7.2
2017-11-03T07:04:50.566Z,7.2
2017-11-03T07:05:49.767Z,7.3
2017-11-03T07:06:51.497Z,7.3
2017-11-03T07:07:50.070Z,7.3
2017-11-03T07:08:50.865Z,7.3
2017-11-03T07:09:51.299Z,7.3
2017-11-03T07:12:02.431Z,7.3
2017-11-03T07:13:02.334Z,7.3
2017-11-03T07:14:03.501Z,7.3
2017-11-03T07:15:02.782Z,7.3
2017-11-03T07:16:02.839Z,7.2
2017-11-03T07:17:03.403Z,7.2
2017-11-03T07:18:02.592Z,7.1
2017-11-03T07:19:02.682Z,7.1
2017-11-03T07:20:03.550Z,7.1
2017-11-03T07:21:02.447Z,7.1
2017-11-03T07:22:02.544Z,7.1
2017-11-03T07:23:02.394Z,7.1
2017-11-03T07:24:02.374Z,7.1
2017-11-03T07:25:03.721Z,7.1
2017-11-03T07:26:02.811Z,7.1
2017-11-03T07:27:04.363Z,7.1
2017-11-03T07:28:03.536Z,7.2
2017-11-03T07:29:02.777Z,7.2
2017-11-03T07:30:06.479Z,7.2
2017-11-03T07:31:02.557Z,7.2
2017-11-03T07:32:02.178Z,7.2
2017-11-03T07:33:03.182Z,7.3
2017-11-03T07:34:02.600Z,7.3
2017-11-03T07:35:02.551Z,7.3
2017-11-03T07:36:03.135Z,7.4
2017-11-03T07:37:02.526Z,7.4
2017-11-03T07:38:03.854Z,7.4
2017-11-03T07:39:04.917Z,7.4
2017-11-03T07:40:02.437Z,7.4
2017-11-03T07:41:02.492Z,7.6
2017-11-03T07:42:02.232Z,7.6
2017-11-03T07:43:03.906Z,7.6
2017-11-03T07:44:02.557Z,7.6
2017-11-03T07:46:01.916Z,7.7
2017-11-03T07:47:02.016Z,7.7
2017-11-03T07:48:01.997Z,7.7
2017-11-03T07:49:02.231Z,7.8
2017-11-03T07:50:02.202Z,7.8
2017-11-03T07:51:02.157Z,8.0
2017-11-03T07:52:02.111Z,8.0
2017-11-03T07:53:02.154Z,8.0
2017-11-03T07:54:02.187Z,8.0
2017-11-03T07:55:01.888Z,8.0
2017-11-03T07:56:54.252Z,8.2
2017-11-03T07:57:04.651Z,8.2
2017-11-03T07:58:04.761Z,8.2
2017-11-03T07:59:04.819Z,8.3
2017-11-03T08:00:04.635Z,8.3
2017-11-03T08:01:04.826Z,8.4
2017-11-03T08:02:04.849Z,8.4
2017-11-03T08:03:04.872Z,8.4
2017-11-03T08:04:04.401Z,8.4
2017-11-03T08:05:04.616Z,8.4
2017-11-03T08:06:04.951Z,8.5
2017-11-03T08:08:18.811Z,8.5
2017-11-03T08:09:18.188Z,8.5
2017-11-03T08:10:18.155Z,8.5
2017-11-03T08:11:17.914Z,8.5
2017-11-03T08:12:18.102Z,8.5
2017-11-03T08:13:18.445Z,8.5
2017-11-03T08:14:17.678Z,8.6
2017-11-03T08:15:18.029Z,8.6
2017-11-03T08:16:18.190Z,8.6
2017-11-03T08:17:18.063Z,8.6
2017-11-03T08:18:17.664Z,8.6
2017-11-03T08:19:18.112Z,8.8
2017-11-03T08:20:17.639Z,8.8
2017-11-03T08:21:19.221Z,8.8
2017-11-03T08:22:18.101Z,8.8
2017-11-03T08:23:18.483Z,8.8
2017-11-03T08:24:18.161Z,8.9
2017-11-03T08:25:18.162Z,8.9
2017-11-03T08:26:18.492Z,8.9
2017-11-03T08:27:17.852Z,8.9
2017-11-03T08:28:17.924Z,8.9
2017-11-03T08:29:17.731Z,9.1
2017-11-03T08:30:17.899Z,9.1
2017-11-03T08:31:17.786Z,9.1
2017-11-03T08:32:18.309Z,9.1
2017-11-03T08:33:18.171Z,9.1
2017-11-03T08:34:18.138Z,9.1
2017-11-03T08:35:17.839Z,9.1
2017-11-03T08:36:18.306Z,9.1
2017-11-03T08:37:18.293Z,9.0
2017-11-03T08:38:18.119Z,9.0
2017-11-03T08:39:18.075Z,9.0
2017-11-03T08:40:18.152Z,9.0
2017-11-03T08:41:17.877Z,9.0
2017-11-03T08:42:18.139Z,9.0
2017-11-03T08:43:18.077Z,9.0
2017-11-03T08:44:18.077Z,9.1
2017-11-03T08:45:18.098Z,9.1
2017-11-03T08:46:18.875Z,9.1
2017-11-03T08:47:17.931Z,9.1
2017-11-03T08:48:17.845Z,9.1
2017-11-03T08:49:17.905Z,9.3
2017-11-03T08:50:18.100Z,9.3
2017-11-03T08:51:18.122Z,9.3
2017-11-03T08:52:18.120Z,9.4
2017-11-03T08:53:18.080Z,9.4
2017-11-03T08:54:17.909Z,9.3
2017-11-03T08:55:18.148Z,9.3
2017-11-03T08:56:18.616Z,9.3
2017-11-03T08:57:18.121Z,9.3
2017-11-03T08:58:17.722Z,9.3
2017-11-03T08:59:18.178Z,9.3
2017-11-03T09:00:18.154Z,9.5
2017-11-03T09:01:18.120Z,9.5
2017-11-03T09:02:17.812Z,9.6
2017-11-03T09:03:18.259Z,9.6
2017-11-03T09:04:17.774Z,9.6
2017-11-03T09:05:18.126Z,9.7
2017-11-03T09:06:20.250Z,9.7
2017-11-03T09:07:17.819Z,9.8
2017-11-03T09:08:18.253Z,9.8
2017-11-03T09:09:17.975Z,9.8
2017-11-03T09:10:18.171Z,9.6
2017-11-03T09:11:18.167Z,9.6
2017-11-03T09:12:18.166Z,9.7
2017-11-03T09:13:18.150Z,9.7
2017-11-03T09:14:18.134Z,9.7
2017-11-03T09:15:17.952Z,9.7
2017-11-03T09:24:26.485Z,9.7
2017-11-03T09:24:39.265Z,9.7
2017-11-03T09:25:39.778Z,10.3
2017-11-03T09:26:41.408Z,10.3
2017-11-03T09:27:38.735Z,10.2
2017-11-03T09:28:38.657Z,10.2
2017-11-03T09:29:38.642Z,10.2
2017-11-03T09:30:39.179Z,10.3
2017-11-03T09:31:39.070Z,10.3
2017-11-03T09:32:38.711Z,10.4
2017-11-03T09:33:39.130Z,10.4
2017-11-03T09:34:38.956Z,10.4
2017-11-03T09:35:39.078Z,10.5
2017-11-03T09:36:38.818Z,10.5
2017-11-03T09:37:39.373Z,10.6
2017-11-03T09:38:39.401Z,10.6
2017-11-03T09:39:39.132Z,10.6
2017-11-03T09:40:39.207Z,10.5
2017-11-03T09:41:38.737Z,10.5
2017-11-03T09:42:38.799Z,10.8
2017-11-03T09:43:39.399Z,10.8
2017-11-03T09:44:39.849Z,10.8
2017-11-03T09:45:38.804Z,10.8
2017-11-03T09:46:39.203Z,10.8
2017-11-03T09:47:39.251Z,10.8
2017-11-03T09:48:39.191Z,10.9
2017-11-03T09:49:38.929Z,10.9
2017-11-03T09:50:39.269Z,11.0
2017-11-03T09:51:39.056Z,11.0
2017-11-03T09:52:38.794Z,11.0
2017-11-03T09:53:39.756Z,10.9
2017-11-03T09:54:39.152Z,10.9
2017-11-03T09:55:39.198Z,10.9
2017-11-03T09:56:38.867Z,10.9
2017-11-03T09:57:39.175Z,10.9
2017-11-03T09:58:39.115Z,11.1
2017-11-03T09:59:38.824Z,11.1
2017-11-03T10:00:39.299Z,11.0
2017-11-03T10:01:39.194Z,11.0
2017-11-03T10:02:39.217Z,11.0
2017-11-03T10:04:07.378Z,11.2
2017-11-03T10:04:38.800Z,11.2
2017-11-03T10:05:38.808Z,11.2
2017-11-03T10:06:39.254Z,11.2
2017-11-03T10:07:38.921Z,11.2
2017-11-03T10:08:38.836Z,11.3
2017-11-03T10:09:39.215Z,11.3
2017-11-03T10:10:38.759Z,11.3
2017-11-03T10:11:39.068Z,11.3
2017-11-03T10:12:38.730Z,11.3
2017-11-03T10:13:39.162Z,11.6
2017-11-03T10:15:51.736Z,11.7
2017-11-03T10:16:51.405Z,11.7
2017-11-03T10:17:51.509Z,11.7
2017-11-03T10:18:54.101Z,11.7
2017-11-03T10:19:51.690Z,11.7
2017-11-03T10:20:51.548Z,11.6
2017-11-03T10:21:51.588Z,11.6
2017-11-03T10:22:51.739Z,11.6
2017-11-03T10:23:51.823Z,11.4
2017-11-03T10:24:53.055Z,11.4
2017-11-03T10:26:07.890Z,11.6
2017-11-03T10:26:51.840Z,11.6
2017-11-03T10:27:54.754Z,11.6
2017-11-03T10:28:51.848Z,11.8
2017-11-03T10:29:51.767Z,11.8
2017-11-03T10:30:51.459Z,11.8
2017-11-03T10:31:51.806Z,12.0
2017-11-03T10:32:51.779Z,12.0
2017-11-03T10:33:52.018Z,11.8
2017-11-03T10:34:51.837Z,11.8
2017-11-03T10:35:52.526Z,11.8
2017-11-03T10:36:51.637Z,11.8
2017-11-03T10:37:51.890Z,11.8
2017-11-03T10:38:52.166Z,11.7
2017-11-03T10:39:52.629Z,11.7
2017-11-03T10:40:51.487Z,11.7
2017-11-03T10:41:51.648Z,12.0
2017-11-03T10:42:52.484Z,12.0
2017-11-03T10:43:51.692Z,12.3
2017-11-03T10:44:51.448Z,12.3
2017-11-03T10:45:52.342Z,12.3
2017-11-03T10:46:51.869Z,12.1
2017-11-03T10:47:51.483Z,12.1
2017-11-03T10:48:51.831Z,12.2
2017-11-03T10:49:51.781Z,12.2
2017-11-03T10:50:51.475Z,12.2
2017-11-03T10:51:51.884Z,12.2
2017-11-03T10:52:51.875Z,12.2
2017-11-03T10:53:51.804Z,12.1
2017-11-03T10:54:51.627Z,12.1
2017-11-03T10:55:52.533Z,12.1
2017-11-03T10:56:51.905Z,11.7
2017-11-03T10:57:51.508Z,11.7
2017-11-03T10:58:52.365Z,12.0
2017-11-03T10:59:51.775Z,12.0
2017-11-03T11:00:51.882Z,12.0
2017-11-03T11:01:52.486Z,12.2
2017-11-03T11:02:51.877Z,12.2
2017-11-03T11:03:51.935Z,12.2
2017-11-03T11:04:51.893Z,12.1
2017-11-03T11:05:51.697Z,12.1
2017-11-03T11:06:51.544Z,12.3
2017-11-03T11:07:51.608Z,12.3
2017-11-03T11:08:51.976Z,12.3
2017-11-03T11:09:51.630Z,12.1
2017-11-03T11:10:51.519Z,12.1
2017-11-03T11:11:51.913Z,12.1
2017-11-03T11:12:51.486Z,12.1
2017-11-03T11:13:51.484Z,12.1
2017-11-03T11:14:51.689Z,12.0
2017-11-03T11:15:51.831Z,12.0
2017-11-03T11:16:51.656Z,12.0
2017-11-03T11:17:51.494Z,12.0
2017-11-03T11:18:51.624Z,12.0
2017-11-03T11:19:54.443Z,12.2
2017-11-03T11:20:51.868Z,12.2
2017-11-03T11:21:51.887Z,12.0
2017-11-03T11:22:51.927Z,12.0
2017-11-03T11:23:51.893Z,12.0
2017-11-03T11:24:52.215Z,12.0
2017-11-03T11:25:51.674Z,12.0
2017-11-03T11:26:51.969Z,12.2
2017-11-03T11:27:52.043Z,12.2
2017-11-03T11:28:51.992Z,12.2
2017-11-03T11:29:51.921Z,12.0
2017-11-03T11:30:52.020Z,12.0
2017-11-03T11:31:51.976Z,12.0
2017-11-03T11:32:51.985Z,12.0
2017-11-03T11:33:51.831Z,12.0
2017-11-03T11:34:51.507Z,12.2
2017-11-03T11:35:51.592Z,12.2
2017-11-03T11:36:51.963Z,12.2
2017-11-03T11:37:51.848Z,12.2
2017-11-03T11:38:52.019Z,12.2
2017-11-03T11:39:51.892Z,12.4
2017-11-03T11:40:51.671Z,12.4
2017-11-03T11:41:51.550Z,12.4
2017-11-03T11:42:54.544Z,12.4
2017-11-03T11:43:55.421Z,12.4
2017-11-03T11:44:51.910Z,12.3
2017-11-03T11:45:51.568Z,12.3
2017-11-03T11:46:51.944Z,12.3
2017-11-03T11:47:51.946Z,12.3
2017-11-03T11:48:51.995Z,12.3
2017-11-03T11:49:52.114Z,12.5
2017-11-03T11:50:51.772Z,12.5
2017-11-03T11:51:51.619Z,12.5
2017-11-03T11:52:52.042Z,12.5
2017-11-03T11:54:02.087Z,12.5
2017-11-03T11:54:52.032Z,12.4
2017-11-03T11:55:51.982Z,12.4
2017-11-03T11:56:51.808Z,12.4
2017-11-03T11:57:51.992Z,12.4
2017-11-03T11:58:52.195Z,12.4
2017-11-03T11:59:52.045Z,12.4
2017-11-03T12:00:52.188Z,12.4
2017-11-03T12:01:51.923Z,12.4
2017-11-03T12:02:53.198Z,12.5
2017-11-03T12:05:57.511Z,12.5
2017-11-03T12:06:57.553Z,12.4
2017-11-03T12:07:57.321Z,12.5
2017-11-03T12:08:57.541Z,12.5
2017-11-03T12:09:57.811Z,12.5
2017-11-03T12:10:57.408Z,12.4
2017-11-03T12:11:57.781Z,12.4
2017-11-03T12:12:57.685Z,12.5
2017-11-03T12:13:57.727Z,12.5
2017-11-03T12:14:58.973Z,12.5
2017-11-03T12:15:57.757Z,12.6
2017-11-03T12:16:58.845Z,12.6
2017-11-03T12:17:57.366Z,12.6
2017-11-03T12:18:57.588Z,12.6
2017-11-03T12:19:58.428Z,12.6
2017-11-03T12:20:58.097Z,12.6
2017-11-03T12:21:59.666Z,12.6
2017-11-03T12:22:57.364Z,12.7
2017-11-03T12:23:57.857Z,12.7
2017-11-03T12:24:58.028Z,12.7
2017-11-03T12:25:57.438Z,12.5
2017-11-03T12:26:57.852Z,12.5
2017-11-03T12:27:57.709Z,12.4
2017-11-03T12:28:57.425Z,12.4
2017-11-03T12:29:58.066Z,12.4
2017-11-03T12:30:57.863Z,12.7
2017-11-03T12:31:57.425Z,12.7
2017-11-03T12:32:57.404Z,12.8
2017-11-03T12:33:58.923Z,12.8
2017-11-03T12:34:58.894Z,12.8
2017-11-03T12:35:57.810Z,12.8
2017-11-03T12:36:57.571Z,12.8
2017-11-03T12:37:59.397Z,12.8
2017-11-03T12:38:57.806Z,12.8
2017-11-03T12:39:57.818Z,12.8
2017-11-03T12:40:58.240Z,12.8
2017-11-03T12:41:57.630Z,12.8
2017-11-03T12:42:57.893Z,12.8
2017-11-03T12:43:57.875Z,12.7
2017-11-03T12:44:57.666Z,12.7
2017-11-03T12:45:57.965Z,12.6
2017-11-03T12:46:57.561Z,12.6
2017-11-03T12:47:57.875Z,12.6
2017-11-03T12:48:57.750Z,12.5
2017-11-03T12:49:59.124Z,12.5
2017-11-03T12:50:59.228Z,12.4
2017-11-03T12:51:57.593Z,12.4
2017-11-03T12:52:57.417Z,12.4
2017-11-03T12:53:57.664Z,12.5
2017-11-03T12:54:58.344Z,12.5
2017-11-03T12:55:57.847Z,12.5
2017-11-03T12:56:57.937Z,12.5
2017-11-03T12:57:57.420Z,12.5
2017-11-03T12:58:57.831Z,12.6
2017-11-03T12:59:57.857Z,12.6
2017-11-03T13:00:57.591Z,12.5
2017-11-03T13:01:57.351Z,12.5
2017-11-03T13:02:58.496Z,12.5
2017-11-03T13:03:57.466Z,12.5
2017-11-03T13:04:57.749Z,12.5
2017-11-03T13:05:57.439Z,12.6
2017-11-03T13:06:57.907Z,12.6
2017-11-03T13:07:58.211Z,12.6
2017-11-03T13:08:58.547Z,12.5
2017-11-03T13:09:57.554Z,12.5
2017-11-03T13:10:58.902Z,12.5
2017-11-03T13:11:57.749Z,12.4
2017-11-03T13:12:58.562Z,12.4
2017-11-03T13:13:57.517Z,12.6
2017-11-03T13:14:57.845Z,12.6
2017-11-03T13:15:57.786Z,12.6
2017-11-03T13:16:58.046Z,12.4
2017-11-03T13:17:57.449Z,12.4
2017-11-03T13:18:58.889Z,12.4
2017-11-03T13:20:00.389Z,12.4
2017-11-03T13:20:58.642Z,12.4
2017-11-03T13:21:57.562Z,12.3
2017-11-03T13:22:57.675Z,12.3
2017-11-03T13:23:58.148Z,12.3
2017-11-03T13:24:58.554Z,12.3
2017-11-03T13:25:57.942Z,12.3
2017-11-03T13:26:58.981Z,12.2
2017-11-03T13:27:58.639Z,12.2
2017-11-03T13:28:57.837Z,12.2
2017-11-03T13:29:59.256Z,12.2
2017-11-03T13:30:58.075Z,12.2
2017-11-03T13:31:57.525Z,12.2
2017-11-03T13:32:58.093Z,12.2
2017-11-03T13:33:57.795Z,12.3
2017-11-03T13:34:57.925Z,12.3
2017-11-03T13:35:57.901Z,12.3
2017-11-03T13:36:59.416Z,12.3
2017-11-03T13:37:58.717Z,12.3
2017-11-03T13:38:57.741Z,12.3
2017-11-03T13:39:57.874Z,12.4
2017-11-03T13:40:58.434Z,12.4
2017-11-03T13:41:57.813Z,12.3
2017-11-03T13:42:59.383Z,12.3
2017-11-03T13:43:58.157Z,12.3
2017-11-03T13:44:58.550Z,12.4
2017-11-03T13:45:57.780Z,12.4
2017-11-03T13:46:57.797Z,12.4
2017-11-03T13:47:58.097Z,12.4
2017-11-03T13:49:03.793Z,12.4
2017-11-03T13:49:57.945Z,12.5
2017-11-03T13:50:58.740Z,12.5
2017-11-03T13:51:59.267Z,12.4
2017-11-03T13:52:57.990Z,12.4
2017-11-03T13:53:57.979Z,12.4
2017-11-03T13:54:57.684Z,12.4
2017-11-03T13:55:57.774Z,12.4